KMEM/MEM METAR and TAF weather

Enter ICAO airport designator
Station Type Date Time Source
KMEM METAR 2019/02/17 07:54 UTC NOAA

KMEM 170754Z 12004KT 10SM BKN007 OVC013 05/04 A2972 RMK AO2 RAB04E25 CIG 007V010 SLP066 P0000 T00500044


Station Type Date Time Source
KMEM Decoded METAR 2019/02/17 07:54 UTC NOAA

MEMPHIS INTERNATIONAL AIRPORT , TN, United States (KMEM) 35-02N 089-59W 86M
Feb 17, 2019 - 02:54 AM EST / 2019.02.17 0754 UTC
Wind: from the ESE (120 degrees) at 5 MPH (4 KT):0
Visibility: 10 mile(s):0
Sky conditions: overcast
Precipitation last hour: A trace
Temperature: 41.0 F (5.0 C)
Dew Point: 39.9 F (4.4 C)
Relative Humidity: 95%
Pressure (altimeter): 29.72 in. Hg (1006 hPa)
ob: KMEM 170754Z 12004KT 10SM BKN007 OVC013 05/04 A2972 RMK AO2 RAB04E25 CIG 007V010 SLP066 P0000 T00500044
cycle: 8

Station Type Date Time Source
KMEM TAF 2019/02/17 06:27 UTC NOAA

TAF KMEM 170525Z 1706/1812 13005KT P6SM -SHRA OVC014
FM170800 13005KT 5SM -SHRA OVC009
TEMPO 1709/1713 2SM -SHRA BR OVC004
FM171500 25005KT P6SM VCSH OVC009
FM171800 30007KT P6SM BKN015
FM172200 32007KT P6SM SCT030 BKN250
FM180100 35008KT P6SM SCT250


Example: see airport list